sensor_id;sensor_type;location;lat;lon;timestamp;temperature;humidity
20370;DHT22;10344;47.592;9.600;2023-10-19T00:00:45;10.00;99.90
20370;DHT22;10344;47.592;9.600;2023-10-19T00:03:16;9.90;99.90
20370;DHT22;10344;47.592;9.600;2023-10-19T00:05:45;9.90;99.90
20370;DHT22;10344;47.592;9.600;2023-10-19T00:08:11;10.00;99.90
20370;DHT22;10344;47.592;9.600;2023-10-19T00:10:42;10.00;99.90
20370;DHT22;10344;47.592;9.600;2023-10-19T00:13:12;10.00;99.90
20370;DHT22;10344;47.592;9.600;2023-10-19T00:15:38;10.00;99.90
20370;DHT22;10344;47.592;9.600;2023-10-19T00:18:19;10.00;99.90
20370;DHT22;10344;47.592;9.600;2023-10-19T00:20:49;10.00;99.90
20370;DHT22;10344;47.592;9.600;2023-10-19T00:23:18;10.10;99.90
20370;DHT22;10344;47.592;9.600;2023-10-19T00:25:52;10.10;99.90
20370;DHT22;10344;47.592;9.600;2023-10-19T00:28:18;10.10;99.90
20370;DHT22;10344;47.592;9.600;2023-10-19T00:30:44;10.10;99.90
20370;DHT22;10344;47.592;9.600;2023-10-19T00:33:10;10.10;99.90
20370;DHT22;10344;47.592;9.600;2023-10-19T00:35:43;10.10;99.90
20370;DHT22;10344;47.592;9.600;2023-10-19T00:38:24;10.10;99.90
20370;DHT22;10344;47.592;9.600;2023-10-19T00:40:53;10.10;99.90
20370;DHT22;10344;47.592;9.600;2023-10-19T00:43:40;10.10;99.90
20370;DHT22;10344;47.592;9.600;2023-10-19T00:46:08;10.10;99.90
20370;DHT22;10344;47.592;9.600;2023-10-19T00:48:49;10.10;99.90
20370;DHT22;10344;47.592;9.600;2023-10-19T00:51:16;10.10;99.90
20370;DHT22;10344;47.592;9.600;2023-10-19T00:53:55;10.10;99.90
20370;DHT22;10344;47.592;9.600;2023-10-19T00:56:22;10.20;99.90
20370;DHT22;10344;47.592;9.600;2023-10-19T00:58:51;10.10;99.90
20370;DHT22;10344;47.592;9.600;2023-10-19T01:01:29;10.10;99.90
20370;DHT22;10344;47.592;9.600;2023-10-19T01:03:55;10.10;99.90
20370;DHT22;10344;47.592;9.600;2023-10-19T01:06:24;10.10;99.90
20370;DHT22;10344;47.592;9.600;2023-10-19T01:08:50;10.10;99.90
20370;DHT22;10344;47.592;9.600;2023-10-19T01:11:19;10.10;99.90
20370;DHT22;10344;47.592;9.600;2023-10-19T01:13:49;10.10;99.90
20370;DHT22;10344;47.592;9.600;2023-10-19T01:16:17;10.10;99.90
20370;DHT22;10344;47.592;9.600;2023-10-19T01:18:49;10.20;99.90
20370;DHT22;10344;47.592;9.600;2023-10-19T01:21:24;10.20;99.90
20370;DHT22;10344;47.592;9.600;2023-10-19T01:24:08;10.20;99.90
20370;DHT22;10344;47.592;9.600;2023-10-19T01:26:42;10.20;99.90
20370;DHT22;10344;47.592;9.600;2023-10-19T01:29:11;10.20;99.90
20370;DHT22;10344;47.592;9.600;2023-10-19T01:31:45;10.30;99.90
20370;DHT22;10344;47.592;9.600;2023-10-19T01:34:21;10.30;99.90
20370;DHT22;10344;47.592;9.600;2023-10-19T01:36:47;10.30;99.90
20370;DHT22;10344;47.592;9.600;2023-10-19T01:39:16;10.30;99.90
20370;DHT22;10344;47.592;9.600;2023-10-19T01:41:44;10.30;99.90
20370;DHT22;10344;47.592;9.600;2023-10-19T01:44:10;10.30;99.90
20370;DHT22;10344;47.592;9.600;2023-10-19T01:46:43;10.30;99.90
20370;DHT22;10344;47.592;9.600;2023-10-19T01:49:09;10.30;99.90
20370;DHT22;10344;47.592;9.600;2023-10-19T01:51:34;10.30;99.90
20370;DHT22;10344;47.592;9.600;2023-10-19T01:54:09;10.20;99.90
20370;DHT22;10344;47.592;9.600;2023-10-19T01:56:35;10.20;99.90
20370;DHT22;10344;47.592;9.600;2023-10-19T01:59:01;10.10;99.90
20370;DHT22;10344;47.592;9.600;2023-10-19T02:01:27;10.10;99.90
20370;DHT22;10344;47.592;9.600;2023-10-19T02:03:55;10.00;99.90
20370;DHT22;10344;47.592;9.600;2023-10-19T02:06:24;10.00;99.90
20370;DHT22;10344;47.592;9.600;2023-10-19T02:08:55;10.00;99.90
20370;DHT22;10344;47.592;9.600;2023-10-19T02:11:26;10.00;99.90
20370;DHT22;10344;47.592;9.600;2023-10-19T02:13:55;10.00;99.90
20370;DHT22;10344;47.592;9.600;2023-10-19T02:16:25;9.90;99.90
20370;DHT22;10344;47.592;9.600;2023-10-19T02:18:51;9.90;99.90
20370;DHT22;10344;47.592;9.600;2023-10-19T02:21:17;9.90;99.90
20370;DHT22;10344;47.592;9.600;2023-10-19T02:23:52;9.90;99.90
20370;DHT22;10344;47.592;9.600;2023-10-19T02:26:19;9.90;99.90
20370;DHT22;10344;47.592;9.600;2023-10-19T02:28:56;9.90;99.90
20370;DHT22;10344;47.592;9.600;2023-10-19T02:31:22;9.90;99.90
20370;DHT22;10344;47.592;9.600;2023-10-19T02:33:48;9.90;99.90
20370;DHT22;10344;47.592;9.600;2023-10-19T02:36:30;9.80;99.90
20370;DHT22;10344;47.592;9.600;2023-10-19T02:38:56;9.80;99.90
20370;DHT22;10344;47.592;9.600;2023-10-19T02:41:24;9.70;99.90
20370;DHT22;10344;47.592;9.600;2023-10-19T02:43:55;9.80;99.90
20370;DHT22;10344;47.592;9.600;2023-10-19T02:46:29;9.80;99.90
20370;DHT22;10344;47.592;9.600;2023-10-19T02:49:02;9.80;99.90
20370;DHT22;10344;47.592;9.600;2023-10-19T02:51:37;9.80;99.90
20370;DHT22;10344;47.592;9.600;2023-10-19T02:54:03;9.70;99.90
20370;DHT22;10344;47.592;9.600;2023-10-19T02:56:32;9.70;99.90
20370;DHT22;10344;47.592;9.600;2023-10-19T02:59:00;9.60;99.90
20370;DHT22;10344;47.592;9.600;2023-10-19T03:01:29;9.60;99.90
20370;DHT22;10344;47.592;9.600;2023-10-19T03:03:57;9.50;99.90
20370;DHT22;10344;47.592;9.600;2023-10-19T03:06:26;9.50;99.90
20370;DHT22;10344;47.592;9.600;2023-10-19T03:08:56;9.60;99.90
20370;DHT22;10344;47.592;9.600;2023-10-19T03:11:26;9.60;99.90
20370;DHT22;10344;47.592;9.600;2023-10-19T03:13:53;9.60;99.90
20370;DHT22;10344;47.592;9.600;2023-10-19T03:16:18;9.60;99.90
20370;DHT22;10344;47.592;9.600;2023-10-19T03:18:45;9.50;99.90
20370;DHT22;10344;47.592;9.600;2023-10-19T03:21:11;9.50;99.90
20370;DHT22;10344;47.592;9.600;2023-10-19T03:23:37;9.50;99.90
20370;DHT22;10344;47.592;9.600;2023-10-19T03:26:03;9.50;99.90
20370;DHT22;10344;47.592;9.600;2023-10-19T03:28:48;9.50;99.90
20370;DHT22;10344;47.592;9.600;2023-10-19T03:31:25;9.50;99.90
20370;DHT22;10344;47.592;9.600;2023-10-19T03:33:51;9.50;99.90
20370;DHT22;10344;47.592;9.600;2023-10-19T03:36:21;9.60;99.90
20370;DHT22;10344;47.592;9.600;2023-10-19T03:38:49;9.60;99.90
20370;DHT22;10344;47.592;9.600;2023-10-19T03:41:19;9.60;99.90
20370;DHT22;10344;47.592;9.600;2023-10-19T03:43:52;9.60;99.90
20370;DHT22;10344;47.592;9.600;2023-10-19T03:46:19;9.70;99.90
20370;DHT22;10344;47.592;9.600;2023-10-19T03:48:54;9.70;99.90
20370;DHT22;10344;47.592;9.600;2023-10-19T03:51:24;9.80;99.90
20370;DHT22;10344;47.592;9.600;2023-10-19T03:53:51;9.80;99.90
20370;DHT22;10344;47.592;9.600;2023-10-19T03:56:20;9.80;99.90
20370;DHT22;10344;47.592;9.600;2023-10-19T03:58:49;9.90;99.90
20370;DHT22;10344;47.592;9.600;2023-10-19T04:01:16;9.90;99.90
20370;DHT22;10344;47.592;9.600;2023-10-19T04:03:43;9.90;99.90
20370;DHT22;10344;47.592;9.600;2023-10-19T04:06:09;9.90;99.90
20370;DHT22;10344;47.592;9.600;2023-10-19T04:08:39;9.90;99.90
20370;DHT22;10344;47.592;9.600;2023-10-19T04:11:08;10.00;99.90
20370;DHT22;10344;47.592;9.600;2023-10-19T04:13:36;10.00;99.90
20370;DHT22;10344;47.592;9.600;2023-10-19T04:16:02;10.00;99.90
20370;DHT22;10344;47.592;9.600;2023-10-19T04:18:27;10.00;99.90
20370;DHT22;10344;47.592;9.600;2023-10-19T04:20:53;10.00;99.90
20370;DHT22;10344;47.592;9.600;2023-10-19T04:23:19;10.00;99.90
20370;DHT22;10344;47.592;9.600;2023-10-19T04:25:46;10.10;99.90
20370;DHT22;10344;47.592;9.600;2023-10-19T04:28:12;10.10;99.90
20370;DHT22;10344;47.592;9.600;2023-10-19T04:30:39;10.10;99.90
20370;DHT22;10344;47.592;9.600;2023-10-19T04:33:04;10.10;99.90
20370;DHT22;10344;47.592;9.600;2023-10-19T04:35:35;10.10;99.90
20370;DHT22;10344;47.592;9.600;2023-10-19T04:38:00;10.10;99.90
20370;DHT22;10344;47.592;9.600;2023-10-19T04:40:28;10.20;99.90
20370;DHT22;10344;47.592;9.600;2023-10-19T04:42:56;10.10;99.90
20370;DHT22;10344;47.592;9.600;2023-10-19T04:45:22;10.10;99.90
20370;DHT22;10344;47.592;9.600;2023-10-19T04:47:51;10.10;99.90
20370;DHT22;10344;47.592;9.600;2023-10-19T04:50:20;10.10;99.90
20370;DHT22;10344;47.592;9.600;2023-10-19T04:52:48;10.20;99.90
20370;DHT22;10344;47.592;9.600;2023-10-19T04:55:13;10.10;99.90
20370;DHT22;10344;47.592;9.600;2023-10-19T04:57:39;10.10;99.90
20370;DHT22;10344;47.592;9.600;2023-10-19T05:00:05;10.10;99.90
20370;DHT22;10344;47.592;9.600;2023-10-19T05:02:30;10.20;99.90
20370;DHT22;10344;47.592;9.600;2023-10-19T05:04:56;10.10;99.90
20370;DHT22;10344;47.592;9.600;2023-10-19T05:07:21;10.20;99.90
20370;DHT22;10344;47.592;9.600;2023-10-19T05:09:47;10.20;99.90
20370;DHT22;10344;47.592;9.600;2023-10-19T05:12:15;10.20;99.90
20370;DHT22;10344;47.592;9.600;2023-10-19T05:14:41;10.30;99.90
20370;DHT22;10344;47.592;9.600;2023-10-19T05:17:09;10.20;99.90
20370;DHT22;10344;47.592;9.600;2023-10-19T05:19:35;10.30;99.90
20370;DHT22;10344;47.592;9.600;2023-10-19T05:22:02;10.20;99.90
20370;DHT22;10344;47.592;9.600;2023-10-19T05:24:29;10.30;99.90
20370;DHT22;10344;47.592;9.600;2023-10-19T05:26:55;10.20;99.90
20370;DHT22;10344;47.592;9.600;2023-10-19T05:29:21;10.20;99.90
20370;DHT22;10344;47.592;9.600;2023-10-19T05:31:46;10.30;99.90
20370;DHT22;10344;47.592;9.600;2023-10-19T05:34:12;10.30;99.90
20370;DHT22;10344;47.592;9.600;2023-10-19T05:36:38;10.30;99.90
20370;DHT22;10344;47.592;9.600;2023-10-19T05:39:04;10.30;99.90
20370;DHT22;10344;47.592;9.600;2023-10-19T05:41:33;10.30;99.90
20370;DHT22;10344;47.592;9.600;2023-10-19T05:43:59;10.30;99.90
20370;DHT22;10344;47.592;9.600;2023-10-19T05:46:25;10.30;99.90
20370;DHT22;10344;47.592;9.600;2023-10-19T05:48:53;10.30;99.90
20370;DHT22;10344;47.592;9.600;2023-10-19T05:51:21;10.30;99.90
20370;DHT22;10344;47.592;9.600;2023-10-19T05:53:49;10.30;99.90
20370;DHT22;10344;47.592;9.600;2023-10-19T05:56:16;10.30;99.90
20370;DHT22;10344;47.592;9.600;2023-10-19T05:58:45;10.30;99.90
20370;DHT22;10344;47.592;9.600;2023-10-19T06:01:14;10.30;99.90
20370;DHT22;10344;47.592;9.600;2023-10-19T06:03:39;10.20;99.90
20370;DHT22;10344;47.592;9.600;2023-10-19T06:06:05;10.20;99.90
20370;DHT22;10344;47.592;9.600;2023-10-19T06:08:30;10.30;99.90
20370;DHT22;10344;47.592;9.600;2023-10-19T06:10:56;10.30;99.90
20370;DHT22;10344;47.592;9.600;2023-10-19T06:13:24;10.30;99.90
20370;DHT22;10344;47.592;9.600;2023-10-19T06:15:50;10.30;99.90
20370;DHT22;10344;47.592;9.600;2023-10-19T06:18:19;10.30;99.90
20370;DHT22;10344;47.592;9.600;2023-10-19T06:20:44;10.30;99.90
20370;DHT22;10344;47.592;9.600;2023-10-19T06:23:10;10.40;99.90
20370;DHT22;10344;47.592;9.600;2023-10-19T06:25:37;10.40;99.90
20370;DHT22;10344;47.592;9.600;2023-10-19T06:28:03;10.40;99.90
20370;DHT22;10344;47.592;9.600;2023-10-19T06:30:32;10.40;99.90
20370;DHT22;10344;47.592;9.600;2023-10-19T06:32:58;10.40;99.90
20370;DHT22;10344;47.592;9.600;2023-10-19T06:35:28;10.40;99.90
20370;DHT22;10344;47.592;9.600;2023-10-19T06:37:54;10.50;99.90
20370;DHT22;10344;47.592;9.600;2023-10-19T06:40:24;10.50;99.90
20370;DHT22;10344;47.592;9.600;2023-10-19T06:42:52;10.60;99.90
20370;DHT22;10344;47.592;9.600;2023-10-19T06:45:20;10.60;99.90
20370;DHT22;10344;47.592;9.600;2023-10-19T06:47:47;10.60;99.90
20370;DHT22;10344;47.592;9.600;2023-10-19T06:50:14;10.70;99.90
20370;DHT22;10344;47.592;9.600;2023-10-19T06:52:41;10.60;99.90
20370;DHT22;10344;47.592;9.600;2023-10-19T06:55:08;10.70;99.90
20370;DHT22;10344;47.592;9.600;2023-10-19T06:57:46;10.70;99.90
20370;DHT22;10344;47.592;9.600;2023-10-19T07:00:16;10.80;99.90
20370;DHT22;10344;47.592;9.600;2023-10-19T07:02:48;10.80;99.90
20370;DHT22;10344;47.592;9.600;2023-10-19T07:05:17;10.90;99.90
20370;DHT22;10344;47.592;9.600;2023-10-19T07:07:57;10.90;99.90
20370;DHT22;10344;47.592;9.600;2023-10-19T07:10:25;11.00;99.90
20370;DHT22;10344;47.592;9.600;2023-10-19T07:12:52;11.10;99.90
20370;DHT22;10344;47.592;9.600;2023-10-19T07:15:21;11.10;99.90
20370;DHT22;10344;47.592;9.600;2023-10-19T07:17:50;11.10;99.90
20370;DHT22;10344;47.592;9.600;2023-10-19T07:20:17;11.20;99.90
20370;DHT22;10344;47.592;9.600;2023-10-19T07:23:09;11.30;99.90
20370;DHT22;10344;47.592;9.600;2023-10-19T07:25:45;11.30;99.90
20370;DHT22;10344;47.592;9.600;2023-10-19T07:28:13;11.30;99.90
20370;DHT22;10344;47.592;9.600;2023-10-19T07:30:39;11.40;99.90
20370;DHT22;10344;47.592;9.600;2023-10-19T07:33:07;11.50;99.90
20370;DHT22;10344;47.592;9.600;2023-10-19T07:35:36;11.50;99.90
20370;DHT22;10344;47.592;9.600;2023-10-19T07:38:09;11.60;99.90
20370;DHT22;10344;47.592;9.600;2023-10-19T07:40:36;11.60;99.90
20370;DHT22;10344;47.592;9.600;2023-10-19T07:43:02;11.60;99.90
20370;DHT22;10344;47.592;9.600;2023-10-19T07:45:29;11.60;99.90
20370;DHT22;10344;47.592;9.600;2023-10-19T07:47:58;11.60;99.90
20370;DHT22;10344;47.592;9.600;2023-10-19T07:50:32;11.60;99.90
20370;DHT22;10344;47.592;9.600;2023-10-19T07:53:00;11.60;99.90
20370;DHT22;10344;47.592;9.600;2023-10-19T07:55:29;11.60;99.90
20370;DHT22;10344;47.592;9.600;2023-10-19T07:57:57;11.70;99.90
20370;DHT22;10344;47.592;9.600;2023-10-19T08:00:27;11.70;99.90
20370;DHT22;10344;47.592;9.600;2023-10-19T08:02:56;11.80;99.90
20370;DHT22;10344;47.592;9.600;2023-10-19T08:05:24;11.90;99.90
20370;DHT22;10344;47.592;9.600;2023-10-19T08:07:52;12.00;99.90
20370;DHT22;10344;47.592;9.600;2023-10-19T08:10:20;12.00;99.90
20370;DHT22;10344;47.592;9.600;2023-10-19T08:12:51;12.10;99.90
20370;DHT22;10344;47.592;9.600;2023-10-19T08:15:20;12.20;99.90
20370;DHT22;10344;47.592;9.600;2023-10-19T08:17:48;12.20;99.90
20370;DHT22;10344;47.592;9.600;2023-10-19T08:20:17;12.30;99.90
20370;DHT22;10344;47.592;9.600;2023-10-19T08:22:49;12.30;99.90
20370;DHT22;10344;47.592;9.600;2023-10-19T08:25:15;12.40;99.90
20370;DHT22;10344;47.592;9.600;2023-10-19T08:27:45;12.40;99.90
20370;DHT22;10344;47.592;9.600;2023-10-19T08:30:14;12.50;99.90
20370;DHT22;10344;47.592;9.600;2023-10-19T08:32:44;12.50;99.90
20370;DHT22;10344;47.592;9.600;2023-10-19T08:35:16;12.60;99.90
20370;DHT22;10344;47.592;9.600;2023-10-19T08:37:48;12.80;99.90
20370;DHT22;10344;47.592;9.600;2023-10-19T08:40:16;13.10;99.90
20370;DHT22;10344;47.592;9.600;2023-10-19T08:42:46;13.40;99.90
20370;DHT22;10344;47.592;9.600;2023-10-19T08:45:14;13.80;99.90
20370;DHT22;10344;47.592;9.600;2023-10-19T08:48:00;14.40;99.90
20370;DHT22;10344;47.592;9.600;2023-10-19T08:50:31;15.10;99.90
20370;DHT22;10344;47.592;9.600;2023-10-19T08:53:01;15.60;99.90
20370;DHT22;10344;47.592;9.600;2023-10-19T08:55:31;15.80;99.90
20370;DHT22;10344;47.592;9.600;2023-10-19T08:57:57;15.90;99.90
20370;DHT22;10344;47.592;9.600;2023-10-19T09:00:26;15.80;99.90
20370;DHT22;10344;47.592;9.600;2023-10-19T09:02:53;15.90;99.90
20370;DHT22;10344;47.592;9.600;2023-10-19T09:05:19;15.90;99.90
20370;DHT22;10344;47.592;9.600;2023-10-19T09:07:47;15.80;99.90
20370;DHT22;10344;47.592;9.600;2023-10-19T09:10:20;15.60;99.90
20370;DHT22;10344;47.592;9.600;2023-10-19T09:12:59;15.40;99.90
20370;DHT22;10344;47.592;9.600;2023-10-19T09:15:28;15.30;99.90
20370;DHT22;10344;47.592;9.600;2023-10-19T09:20:43;15.10;99.90
20370;DHT22;10344;47.592;9.600;2023-10-19T09:23:21;15.00;99.90
20370;DHT22;10344;47.592;9.600;2023-10-19T09:25:51;15.00;99.90
20370;DHT22;10344;47.592;9.600;2023-10-19T09:28:20;15.10;99.90
20370;DHT22;10344;47.592;9.600;2023-10-19T09:30:50;15.20;99.90
20370;DHT22;10344;47.592;9.600;2023-10-19T09:33:16;15.30;99.90
20370;DHT22;10344;47.592;9.600;2023-10-19T09:35:44;15.30;99.90
20370;DHT22;10344;47.592;9.600;2023-10-19T09:38:11;15.30;99.90
20370;DHT22;10344;47.592;9.600;2023-10-19T09:40:37;15.30;99.90
20370;DHT22;10344;47.592;9.600;2023-10-19T09:43:04;15.20;99.90
20370;DHT22;10344;47.592;9.600;2023-10-19T09:45:32;15.30;99.90
20370;DHT22;10344;47.592;9.600;2023-10-19T09:48:02;15.40;99.90
20370;DHT22;10344;47.592;9.600;2023-10-19T09:50:33;15.60;99.90
20370;DHT22;10344;47.592;9.600;2023-10-19T09:52:59;15.80;99.90
20370;DHT22;10344;47.592;9.600;2023-10-19T09:55:28;15.90;99.90
20370;DHT22;10344;47.592;9.600;2023-10-19T10:00:25;16.40;99.90
20370;DHT22;10344;47.592;9.600;2023-10-19T10:02:57;16.90;99.90
20370;DHT22;10344;47.592;9.600;2023-10-19T10:10:45;18.40;99.90
20370;DHT22;10344;47.592;9.600;2023-10-19T10:15:58;19.70;99.90
20370;DHT22;10344;47.592;9.600;2023-10-19T10:18:27;20.10;99.90
20370;DHT22;10344;47.592;9.600;2023-10-19T10:23:44;21.00;99.90
20370;DHT22;10344;47.592;9.600;2023-10-19T10:26:12;21.10;99.90
20370;DHT22;10344;47.592;9.600;2023-10-19T10:28:39;20.80;99.90
20370;DHT22;10344;47.592;9.600;2023-10-19T10:33:49;20.10;99.90
20370;DHT22;10344;47.592;9.600;2023-10-19T10:36:16;19.80;99.90
20370;DHT22;10344;47.592;9.600;2023-10-19T10:38:49;19.70;99.90
20370;DHT22;10344;47.592;9.600;2023-10-19T10:41:22;19.20;99.90
20370;DHT22;10344;47.592;9.600;2023-10-19T10:43:54;19.00;99.90
20370;DHT22;10344;47.592;9.600;2023-10-19T10:46:25;18.80;99.90
20370;DHT22;10344;47.592;9.600;2023-10-19T10:48:54;18.80;99.90
20370;DHT22;10344;47.592;9.600;2023-10-19T10:51:25;19.10;99.90
20370;DHT22;10344;47.592;9.600;2023-10-19T10:53:54;19.30;99.90
20370;DHT22;10344;47.592;9.600;2023-10-19T10:56:25;19.30;99.90
20370;DHT22;10344;47.592;9.600;2023-10-19T10:58:51;19.60;99.90
20370;DHT22;10344;47.592;9.600;2023-10-19T11:01:30;19.90;99.90
20370;DHT22;10344;47.592;9.600;2023-10-19T11:04:13;19.90;99.90
20370;DHT22;10344;47.592;9.600;2023-10-19T11:06:53;20.30;99.90
20370;DHT22;10344;47.592;9.600;2023-10-19T11:09:22;20.60;99.90
20370;DHT22;10344;47.592;9.600;2023-10-19T11:11:48;20.70;99.90
20370;DHT22;10344;47.592;9.600;2023-10-19T11:14:20;20.50;99.90
20370;DHT22;10344;47.592;9.600;2023-10-19T11:16:49;20.20;99.90
20370;DHT22;10344;47.592;9.600;2023-10-19T11:19:14;20.30;99.90
20370;DHT22;10344;47.592;9.600;2023-10-19T11:21:52;20.50;99.90
20370;DHT22;10344;47.592;9.600;2023-10-19T11:24:28;20.60;99.90
20370;DHT22;10344;47.592;9.600;2023-10-19T11:26:57;20.80;99.90
20370;DHT22;10344;47.592;9.600;2023-10-19T11:29:25;21.20;99.90
20370;DHT22;10344;47.592;9.600;2023-10-19T11:32:00;21.40;99.90
20370;DHT22;10344;47.592;9.600;2023-10-19T11:34:29;21.30;99.90
20370;DHT22;10344;47.592;9.600;2023-10-19T11:36:58;21.30;99.90
20370;DHT22;10344;47.592;9.600;2023-10-19T11:39:26;21.80;99.90
20370;DHT22;10344;47.592;9.600;2023-10-19T11:41:54;22.20;99.90
20370;DHT22;10344;47.592;9.600;2023-10-19T11:44:19;22.70;99.90
20370;DHT22;10344;47.592;9.600;2023-10-19T11:46:47;23.10;99.90
20370;DHT22;10344;47.592;9.600;2023-10-19T11:49:13;23.20;99.90
20370;DHT22;10344;47.592;9.600;2023-10-19T11:51:41;23.10;99.90
20370;DHT22;10344;47.592;9.600;2023-10-19T11:54:09;23.00;99.90
20370;DHT22;10344;47.592;9.600;2023-10-19T11:56:35;22.80;99.90
20370;DHT22;10344;47.592;9.600;2023-10-19T11:59:01;22.50;99.90
20370;DHT22;10344;47.592;9.600;2023-10-19T12:01:27;22.00;99.90
20370;DHT22;10344;47.592;9.600;2023-10-19T12:03:54;21.50;99.90
20370;DHT22;10344;47.592;9.600;2023-10-19T12:06:23;21.10;99.90
20370;DHT22;10344;47.592;9.600;2023-10-19T12:08:49;20.70;99.90
20370;DHT22;10344;47.592;9.600;2023-10-19T12:11:15;20.40;99.90
20370;DHT22;10344;47.592;9.600;2023-10-19T12:13:41;20.10;99.90
20370;DHT22;10344;47.592;9.600;2023-10-19T12:16:10;20.00;99.90
20370;DHT22;10344;47.592;9.600;2023-10-19T12:18:39;19.70;99.90
20370;DHT22;10344;47.592;9.600;2023-10-19T12:21:07;19.50;99.90
20370;DHT22;10344;47.592;9.600;2023-10-19T12:23:40;19.30;99.90
20370;DHT22;10344;47.592;9.600;2023-10-19T12:26:08;19.20;99.90
20370;DHT22;10344;47.592;9.600;2023-10-19T12:28:38;19.00;99.90
20370;DHT22;10344;47.592;9.600;2023-10-19T12:31:04;19.00;99.90
20370;DHT22;10344;47.592;9.600;2023-10-19T12:33:35;19.00;99.90
20370;DHT22;10344;47.592;9.600;2023-10-19T12:36:04;19.00;99.90
20370;DHT22;10344;47.592;9.600;2023-10-19T12:38:52;19.00;99.90
20370;DHT22;10344;47.592;9.600;2023-10-19T12:41:19;19.00;99.90
20370;DHT22;10344;47.592;9.600;2023-10-19T12:43:47;19.00;99.90
20370;DHT22;10344;47.592;9.600;2023-10-19T12:46:15;19.00;99.90
20370;DHT22;10344;47.592;9.600;2023-10-19T12:48:42;19.00;99.90
20370;DHT22;10344;47.592;9.600;2023-10-19T12:51:08;18.90;99.90
20370;DHT22;10344;47.592;9.600;2023-10-19T12:53:37;19.00;99.90
20370;DHT22;10344;47.592;9.600;2023-10-19T12:56:04;19.10;99.90
20370;DHT22;10344;47.592;9.600;2023-10-19T12:58:31;19.10;99.90
20370;DHT22;10344;47.592;9.600;2023-10-19T13:00:57;19.10;99.90
20370;DHT22;10344;47.592;9.600;2023-10-19T13:03:24;19.40;99.90
20370;DHT22;10344;47.592;9.600;2023-10-19T13:05:55;19.40;99.90
20370;DHT22;10344;47.592;9.600;2023-10-19T13:08:23;19.10;99.90
20370;DHT22;10344;47.592;9.600;2023-10-19T13:10:52;18.90;99.90
20370;DHT22;10344;47.592;9.600;2023-10-19T13:13:22;18.60;99.90
20370;DHT22;10344;47.592;9.600;2023-10-19T13:15:49;18.30;99.90
20370;DHT22;10344;47.592;9.600;2023-10-19T13:18:15;18.30;99.90
20370;DHT22;10344;47.592;9.600;2023-10-19T13:20:48;18.20;99.90
20370;DHT22;10344;47.592;9.600;2023-10-19T13:23:14;18.20;99.90
20370;DHT22;10344;47.592;9.600;2023-10-19T13:25:47;18.10;99.90
20370;DHT22;10344;47.592;9.600;2023-10-19T13:28:20;18.20;99.90
20370;DHT22;10344;47.592;9.600;2023-10-19T13:30:47;18.00;99.90
20370;DHT22;10344;47.592;9.600;2023-10-19T13:33:13;17.60;99.90
20370;DHT22;10344;47.592;9.600;2023-10-19T13:35:43;17.50;99.90
20370;DHT22;10344;47.592;9.600;2023-10-19T13:38:10;17.30;99.90
20370;DHT22;10344;47.592;9.600;2023-10-19T13:40:38;17.30;99.90
20370;DHT22;10344;47.592;9.600;2023-10-19T13:43:09;17.40;99.90
20370;DHT22;10344;47.592;9.600;2023-10-19T13:45:40;17.50;99.90
20370;DHT22;10344;47.592;9.600;2023-10-19T13:48:06;17.80;99.90
20370;DHT22;10344;47.592;9.600;2023-10-19T13:50:34;18.00;99.90
20370;DHT22;10344;47.592;9.600;2023-10-19T13:53:01;18.20;99.90
20370;DHT22;10344;47.592;9.600;2023-10-19T13:55:31;18.20;99.90
20370;DHT22;10344;47.592;9.600;2023-10-19T13:57:57;18.20;99.90
20370;DHT22;10344;47.592;9.600;2023-10-19T14:00:23;18.10;99.90
20370;DHT22;10344;47.592;9.600;2023-10-19T14:03:10;18.00;99.90
20370;DHT22;10344;47.592;9.600;2023-10-19T14:05:38;17.80;99.90
20370;DHT22;10344;47.592;9.600;2023-10-19T14:08:05;17.70;99.90
20370;DHT22;10344;47.592;9.600;2023-10-19T14:10:32;17.70;99.90
20370;DHT22;10344;47.592;9.600;2023-10-19T14:13:02;17.70;99.90
20370;DHT22;10344;47.592;9.600;2023-10-19T14:15:28;17.80;99.90
20370;DHT22;10344;47.592;9.600;2023-10-19T14:18:01;17.80;99.90
20370;DHT22;10344;47.592;9.600;2023-10-19T14:20:30;18.00;99.90
20370;DHT22;10344;47.592;9.600;2023-10-19T14:22:57;18.00;99.90
20370;DHT22;10344;47.592;9.600;2023-10-19T14:25:23;17.90;99.90
20370;DHT22;10344;47.592;9.600;2023-10-19T14:27:51;17.80;99.90
20370;DHT22;10344;47.592;9.600;2023-10-19T14:30:25;17.80;99.90
20370;DHT22;10344;47.592;9.600;2023-10-19T14:32:51;17.90;99.90
20370;DHT22;10344;47.592;9.600;2023-10-19T14:35:25;18.10;99.90
20370;DHT22;10344;47.592;9.600;2023-10-19T14:37:52;18.30;99.90
20370;DHT22;10344;47.592;9.600;2023-10-19T14:40:25;18.30;99.90
20370;DHT22;10344;47.592;9.600;2023-10-19T14:42:59;18.40;99.90
20370;DHT22;10344;47.592;9.600;2023-10-19T14:45:27;18.50;99.90
20370;DHT22;10344;47.592;9.600;2023-10-19T14:47:59;18.70;99.90
20370;DHT22;10344;47.592;9.600;2023-10-19T14:50:25;18.70;99.90
20370;DHT22;10344;47.592;9.600;2023-10-19T14:52:53;18.60;99.90
20370;DHT22;10344;47.592;9.600;2023-10-19T14:55:22;18.60;99.90
20370;DHT22;10344;47.592;9.600;2023-10-19T14:57:50;18.50;99.90
20370;DHT22;10344;47.592;9.600;2023-10-19T15:00:21;18.50;99.90
20370;DHT22;10344;47.592;9.600;2023-10-19T15:02:50;18.50;99.90
20370;DHT22;10344;47.592;9.600;2023-10-19T15:05:19;18.50;99.90
20370;DHT22;10344;47.592;9.600;2023-10-19T15:07:49;18.50;99.90
20370;DHT22;10344;47.592;9.600;2023-10-19T15:10:23;18.40;99.90
20370;DHT22;10344;47.592;9.600;2023-10-19T15:12:53;18.40;99.90
20370;DHT22;10344;47.592;9.600;2023-10-19T15:15:22;18.40;99.90
20370;DHT22;10344;47.592;9.600;2023-10-19T15:17:48;18.40;99.90
20370;DHT22;10344;47.592;9.600;2023-10-19T15:20:20;18.30;99.90
20370;DHT22;10344;47.592;9.600;2023-10-19T15:22:51;18.10;99.90
20370;DHT22;10344;47.592;9.600;2023-10-19T15:25:16;18.00;99.90
20370;DHT22;10344;47.592;9.600;2023-10-19T15:27:46;17.80;99.90
20370;DHT22;10344;47.592;9.600;2023-10-19T15:30:13;17.60;99.90
20370;DHT22;10344;47.592;9.600;2023-10-19T15:32:43;17.50;99.90
20370;DHT22;10344;47.592;9.600;2023-10-19T15:35:13;17.30;99.90
20370;DHT22;10344;47.592;9.600;2023-10-19T15:37:44;17.30;99.90
20370;DHT22;10344;47.592;9.600;2023-10-19T15:40:13;17.20;99.90
20370;DHT22;10344;47.592;9.600;2023-10-19T15:42:44;17.10;99.90
20370;DHT22;10344;47.592;9.600;2023-10-19T15:45:14;16.90;99.90
20370;DHT22;10344;47.592;9.600;2023-10-19T15:47:43;16.80;99.90
20370;DHT22;10344;47.592;9.600;2023-10-19T15:50:09;16.70;99.90
20370;DHT22;10344;47.592;9.600;2023-10-19T15:52:37;16.70;99.90
20370;DHT22;10344;47.592;9.600;2023-10-19T15:55:09;16.60;99.90
20370;DHT22;10344;47.592;9.600;2023-10-19T15:57:35;16.50;99.90
20370;DHT22;10344;47.592;9.600;2023-10-19T16:00:03;16.40;99.90
20370;DHT22;10344;47.592;9.600;2023-10-19T16:02:28;16.30;99.90